Etusivu
METAR-TAF:

METAR-TAF

Lentoasemat :

Puerto Cabezas, Nicaragua

Leveyspiiri: 14-03N, Pituuspiiri: 083-22W, korkeus merenpinnasta: 20 m

Tämänhetkinen sää

Tämä raportti tehtiin 19 minuuttia sitten, kello 20.00 UTC
Tuuli 6 kn idästä
Lämpötila 31°C
Kosteus 79%
Ilmanpaine 1009 hPa
Näkyvyys: 6000 m
Hajanaisia pilviä 1600 ft:n korkeudessa, Kasvava cumulus-pilvi.
näköpiirissä, sadetta,

METAR: MNPC 212000Z 10006KT 6000 VCRA SCT016TCU 31/27 Q1009 TCURA/NW

Aika: 14:19 (20:19 UTC)

Sääennuste

Tämä raportti tehtiin 4 tuntia ja 27 minuuttia sitten, kello 15.52 UTC
Ennuste voimassa 21. päivästä klo 18 UTC - 22. päivään klo 18 UTC
Tuuli 8 kn idästä
Näkyvyys: 6000 m
Hajonneita pilviä 1600 ft:n korkeudessa, Kasvava cumulus-pilvi.
Ajoittain
22. päivästä klo 04 UTC - 22. päivään klo 06 UTC
Tuuli 6 kn eri suunnista

TAF: MNPC 211552Z 2118/2218 10008KT 6000 -SHRA/HZ BKN016TCU TEMPO 2204/2206 VRB06KT

Säähavainnot ja -ennusteet yli 4000 lentoasemalta (METAR- ja TAF-raportit).

Käytössä olevat sääasemat on merkitty karttaan keltaisilla ja punaisilla pisteillä.

Aseta hiiri pisteen päälle nähdäksesi sääaseman nimen.

Klikkaa sitten nähdäksesi säähavainnot ja -ennusteet.

Kartan vaihtaminen: klikkaa mustalla rastilla varustettuja vihreitä pisteitä, niin voit zoomata sisään; viivalla varustettua vihreää pistettä, niin voit zoomata ulos tai vihreitä nuolia, niin pääset viereisille kartoille.


METAR-TAF: